Time;durP1;ratioP1;P1;durP2;ratioP2;P2;SDS_P1;SDS_P2;PMS_P1;PMS_P2;Temp;Humidity;BMP_temperature;BMP_pressure;BME280_temperature;BME280_humidity;BME280_pressure;Samples;Min_cycle;Max_cycle;Signal;HPM_P1;HPM_P2
2022/06/23 00:00:58;;;;;;;0.45;0.45;;;13.90;99.90;;;;;;5093120;28;20094;-71
2022/06/23 00:03:26;;;;;;;0.30;0.30;;;13.80;99.90;;;;;;5078237;28;20048;-71
2022/06/23 00:05:56;;;;;;;0.35;0.30;;;13.80;99.90;;;;;;5088170;28;20472;-71
2022/06/23 00:08:22;;;;;;;0.40;0.40;;;13.80;99.90;;;;;;5072987;28;20503;-71
2022/06/23 00:10:58;;;;;;;0.20;0.20;;;13.80;99.90;;;;;;5086600;28;20390;-71
2022/06/23 00:13:37;;;;;;;0.40;0.30;;;13.70;99.90;;;;;;5074625;28;20120;-71
2022/06/23 00:16:05;;;;;;;0.30;0.30;;;13.70;99.90;;;;;;5064175;28;20127;-71
2022/06/23 00:18:37;;;;;;;0.30;0.30;;;13.60;99.90;;;;;;5073991;28;20040;-71
2022/06/23 00:21:28;;;;;;;0.57;0.40;;;13.60;99.90;;;;;;5074786;28;20080;-71
2022/06/23 00:24:00;;;;;;;1.67;0.70;;;13.60;99.90;;;;;;5069905;28;20112;-71
2022/06/23 00:26:29;;;;;;;0.50;0.50;;;13.60;99.90;;;;;;5075481;28;20391;-71
2022/06/23 00:29:02;;;;;;;0.52;0.35;;;13.60;99.90;;;;;;5088711;28;20577;-71
2022/06/23 00:31:32;;;;;;;0.32;0.30;;;13.60;99.90;;;;;;5072335;28;20054;-71
2022/06/23 00:34:01;;;;;;;0.40;0.30;;;13.60;99.90;;;;;;5058813;28;20046;-71
2022/06/23 00:36:40;;;;;;;0.40;0.40;;;13.50;99.90;;;;;;5084413;28;20126;-71
2022/06/23 00:39:37;;;;;;;0.25;0.25;;;13.50;99.90;;;;;;5083260;28;20049;-71
2022/06/23 00:42:05;;;;;;;0.22;0.22;;;13.50;99.90;;;;;;5074084;28;20040;-71
2022/06/23 00:44:53;;;;;;;0.63;0.45;;;13.50;99.90;;;;;;5071718;28;20036;-71
2022/06/23 00:47:25;;;;;;;0.50;0.50;;;13.60;99.90;;;;;;5081029;28;20036;-71
2022/06/23 00:50:18;;;;;;;0.20;0.20;;;13.50;99.90;;;;;;5070788;28;20495;-71
2022/06/23 00:53:10;;;;;;;0.38;0.35;;;13.50;99.90;;;;;;5086786;28;20044;-71
2022/06/23 00:55:42;;;;;;;0.65;0.60;;;13.50;99.90;;;;;;5045071;28;20044;-71
2022/06/23 00:58:26;;;;;;;1.45;0.60;;;13.50;99.90;;;;;;5069377;28;20454;-71
2022/06/23 01:00:57;;;;;;;1.02;0.70;;;13.50;99.90;;;;;;5068924;28;20048;-71
2022/06/23 01:03:31;;;;;;;0.70;0.70;;;13.70;99.90;;;;;;5054344;28;20051;-71
2022/06/23 01:06:00;;;;;;;0.75;0.60;;;13.60;99.90;;;;;;5084928;28;20033;-71
2022/06/23 01:08:36;;;;;;;0.40;0.40;;;13.60;99.90;;;;;;5085019;28;20055;-71
2022/06/23 01:11:10;;;;;;;0.73;0.52;;;13.60;99.90;;;;;;5081686;28;20045;-71
2022/06/23 01:13:55;;;;;;;0.43;0.40;;;13.60;99.90;;;;;;5064536;28;20127;-71
2022/06/23 01:16:53;;;;;;;0.40;0.40;;;13.70;99.90;;;;;;5061730;28;20494;-71
2022/06/23 01:19:22;;;;;;;0.90;0.40;;;13.70;99.90;;;;;;5061517;28;20177;-71
2022/06/23 01:21:55;;;;;;;0.50;0.32;;;13.70;99.90;;;;;;5070532;28;20048;-71
2022/06/23 01:24:32;;;;;;;0.40;0.40;;;13.60;99.90;;;;;;5071734;28;20055;-71
2022/06/23 01:27:15;;;;;;;0.38;0.38;;;13.60;99.90;;;;;;5053316;28;20033;-71
2022/06/23 01:30:06;;;;;;;0.35;0.32;;;13.60;99.90;;;;;;5068581;28;20037;-71
2022/06/23 01:32:46;;;;;;;0.50;0.50;;;13.60;99.90;;;;;;5063918;28;20036;-71
2022/06/23 01:35:27;;;;;;;0.55;0.50;;;13.50;99.90;;;;;;5076628;28;20056;-71
2022/06/23 01:38:07;;;;;;;0.50;0.45;;;13.50;99.90;;;;;;5085645;28;20033;-71
2022/06/23 01:40:51;;;;;;;0.75;0.73;;;13.60;99.90;;;;;;5069502;28;20106;-71
2022/06/23 01:43:22;;;;;;;0.80;0.63;;;13.60;99.90;;;;;;5085977;28;20060;-71
2022/06/23 01:46:08;;;;;;;0.40;0.40;;;13.50;99.90;;;;;;5070091;28;20095;-70
2022/06/23 01:48:53;;;;;;;0.50;0.50;;;13.60;99.90;;;;;;5064183;28;20044;-71
2022/06/23 01:51:35;;;;;;;0.80;0.70;;;13.50;99.90;;;;;;5067569;28;20040;-71
2022/06/23 01:54:19;;;;;;;0.50;0.40;;;13.50;99.90;;;;;;5070908;28;20071;-71
2022/06/23 01:56:47;;;;;;;0.45;0.40;;;13.60;99.90;;;;;;5067919;28;20089;-71
2022/06/23 01:59:35;;;;;;;0.38;0.38;;;13.50;99.90;;;;;;5052682;28;20063;-70
2022/06/23 02:02:06;;;;;;;;;;;13.50;99.90;;;;;;5059717;28;20113;-69
2022/06/23 02:04:36;;;;;;;0.43;0.30;;;13.50;99.90;;;;;;5060527;28;19916;-70
2022/06/23 02:07:21;;;;;;;0.30;0.30;;;13.40;99.90;;;;;;5051688;28;20063;-70
2022/06/23 02:10:18;;;;;;;0.40;0.40;;;13.40;99.90;;;;;;5063136;28;20167;-70
2022/06/23 02:13:01;;;;;;;0.93;0.70;;;13.40;99.90;;;;;;5057213;28;20098;-70
2022/06/23 02:15:49;;;;;;;0.75;0.68;;;13.40;99.90;;;;;;5055592;28;21073;-76
2022/06/23 02:18:17;;;;;;;0.50;0.50;;;13.40;99.90;;;;;;5062550;28;20036;-76
2022/06/23 02:20:47;;;;;;;0.50;0.50;;;13.40;99.90;;;;;;5066167;28;20109;-76
2022/06/23 02:23:21;;;;;;;0.30;0.30;;;13.30;99.90;;;;;;5075605;28;20044;-76
2022/06/23 02:25:57;;;;;;;0.30;0.30;;;13.30;99.90;;;;;;5073447;28;20110;-78
2022/06/23 02:28:36;;;;;;;0.50;0.50;;;13.30;99.90;;;;;;5068866;28;20040;-79
2022/06/23 02:31:16;;;;;;;1.63;0.50;;;13.30;99.90;;;;;;5042918;28;20041;-78
2022/06/23 02:33:50;;;;;;;0.73;0.70;;;13.30;99.90;;;;;;5059500;28;20036;-78
2022/06/23 02:36:41;;;;;;;0.70;0.70;;;13.30;99.90;;;;;;5072273;28;20097;-77
2022/06/23 02:39:18;;;;;;;0.40;0.40;;;13.20;99.90;;;;;;5066963;28;20044;-77
2022/06/23 02:41:52;;;;;;;0.73;0.70;;;13.20;99.90;;;;;;5069892;28;20056;-78
2022/06/23 02:44:53;;;;;;;0.75;0.60;;;13.20;99.90;;;;;;5067054;28;20127;-78
2022/06/23 02:47:34;;;;;;;0.43;0.43;;;13.10;99.90;;;;;;5048108;28;20163;-78
2022/06/23 02:50:09;;;;;;;0.52;0.50;;;13.00;99.90;;;;;;5069002;28;20420;-78
2022/06/23 02:52:43;;;;;;;0.50;0.50;;;13.10;99.90;;;;;;5056740;28;20093;-78
2022/06/23 02:55:30;;;;;;;0.40;0.40;;;13.10;99.90;;;;;;5063318;28;20044;-77
2022/06/23 02:57:58;;;;;;;0.40;0.40;;;13.00;99.90;;;;;;5059007;28;20041;-78
2022/06/23 03:00:50;;;;;;;0.60;0.50;;;13.00;99.90;;;;;;5068382;28;20377;-78
2022/06/23 03:03:25;;;;;;;0.63;0.63;;;13.00;99.90;;;;;;5080164;28;20459;-77
2022/06/23 03:05:55;;;;;;;0.55;0.55;;;12.90;99.90;;;;;;5062747;28;20102;-78
2022/06/23 03:08:30;;;;;;;0.40;0.40;;;12.90;99.90;;;;;;5069982;28;20359;-77
2022/06/23 03:11:13;;;;;;;0.40;0.40;;;13.00;99.90;;;;;;5067773;28;20040;-77
2022/06/23 03:13:54;;;;;;;0.63;0.63;;;13.00;99.90;;;;;;5067718;28;20040;-78
2022/06/23 03:16:27;;;;;;;1.42;0.82;;;12.90;99.90;;;;;;5069031;28;20506;-78
2022/06/23 03:19:03;;;;;;;1.10;1.00;;;13.00;99.90;;;;;;5084764;28;20062;-78
2022/06/23 03:21:38;;;;;;;1.25;1.10;;;12.90;99.90;;;;;;5068106;28;20045;-78
2022/06/23 03:24:06;;;;;;;1.10;0.93;;;12.90;99.90;;;;;;5052660;28;20067;-78
2022/06/23 03:26:44;;;;;;;0.60;0.60;;;13.00;99.90;;;;;;5067358;28;20492;-78
2022/06/23 03:29:28;;;;;;;0.60;0.60;;;13.10;99.90;;;;;;5086310;28;20050;-78
2022/06/23 03:32:18;;;;;;;0.60;0.60;;;13.00;99.90;;;;;;5070869;28;20372;-78
2022/06/23 03:34:44;;;;;;;0.60;0.60;;;13.10;99.90;;;;;;5065444;28;20087;-78
2022/06/23 03:37:22;;;;;;;0.60;0.60;;;13.10;99.90;;;;;;5068981;28;20083;-78
2022/06/23 03:42:50;;;;;;;;;;;13.10;99.90;;;;;;5075609;28;20103;-78
2022/06/23 03:45:18;;;;;;;0.52;0.50;;;13.10;99.90;;;;;;5068020;28;20358;-78
2022/06/23 03:47:50;;;;;;;0.40;0.40;;;13.10;99.90;;;;;;5068039;28;20047;-78
2022/06/23 03:50:35;;;;;;;1.08;0.80;;;13.10;99.90;;;;;;5068402;28;20094;-77
2022/06/23 03:53:09;;;;;;;0.45;0.45;;;13.10;99.90;;;;;;5067861;28;20048;-78
2022/06/23 03:55:45;;;;;;;0.68;0.63;;;13.20;99.90;;;;;;5063271;28;20036;-77
2022/06/23 03:58:35;;;;;;;0.70;0.65;;;13.10;99.90;;;;;;5082062;28;20056;-77
2022/06/23 04:01:39;;;;;;;0.88;0.77;;;13.20;99.90;;;;;;5032934;28;20557;-77
2022/06/23 04:04:23;;;;;;;1.20;0.77;;;13.30;99.90;;;;;;5034554;28;20057;-76
2022/06/23 04:06:50;;;;;;;1.13;0.70;;;13.20;99.90;;;;;;5069382;28;20045;-76
2022/06/23 04:09:27;;;;;;;1.10;1.00;;;13.20;99.90;;;;;;5051566;28;20102;-76
2022/06/23 04:11:59;;;;;;;;;;;13.30;99.90;;;;;;5069229;28;20056;-77
2022/06/23 04:14:37;;;;;;;0.93;0.82;;;13.30;99.90;;;;;;5069654;28;19927;-77
2022/06/23 04:17:15;;;;;;;0.70;0.70;;;13.30;99.90;;;;;;5068027;28;20040;-77
2022/06/23 04:19:57;;;;;;;1.00;0.90;;;13.30;99.90;;;;;;5070146;28;20063;-77
2022/06/23 04:22:42;;;;;;;1.17;1.08;;;13.40;99.90;;;;;;5054734;28;20040;-77
2022/06/23 04:25:18;;;;;;;0.88;0.88;;;13.40;99.90;;;;;;5068115;28;20134;-77
2022/06/23 04:27:48;;;;;;;0.95;0.82;;;13.50;99.90;;;;;;5073309;28;20033;-77
2022/06/23 04:30:36;;;;;;;0.80;0.70;;;13.60;99.90;;;;;;5061590;28;20051;-76
2022/06/23 04:33:07;;;;;;;1.05;0.95;;;13.50;99.90;;;;;;5047172;28;20506;-77
2022/06/23 04:35:36;;;;;;;1.27;0.90;;;13.50;99.90;;;;;;5071396;28;20113;-77
2022/06/23 04:38:11;;;;;;;1.00;0.85;;;13.70;99.90;;;;;;5068750;28;20049;-76
2022/06/23 04:40:43;;;;;;;0.68;0.68;;;13.70;99.90;;;;;;5069557;28;20045;-76
2022/06/23 04:43:20;;;;;;;0.70;0.70;;;13.60;99.90;;;;;;5050542;28;20093;-76
2022/06/23 04:45:52;;;;;;;0.60;0.60;;;13.70;99.90;;;;;;5060287;28;20037;-76
2022/06/23 04:48:34;;;;;;;0.88;0.80;;;13.80;99.90;;;;;;5076457;28;20040;-70
2022/06/23 04:51:26;;;;;;;0.70;0.70;;;13.70;99.90;;;;;;5071645;28;20440;-77
2022/06/23 04:54:04;;;;;;;0.73;0.70;;;13.70;99.90;;;;;;5070856;28;20063;-76
2022/06/23 04:56:39;;;;;;;0.65;0.65;;;13.80;99.90;;;;;;5077542;28;20037;-76
2022/06/23 04:59:23;;;;;;;1.00;0.90;;;13.90;99.90;;;;;;5064408;28;20063;-71
2022/06/23 05:01:51;;;;;;;1.40;1.13;;;13.90;99.90;;;;;;5066618;28;20043;-77
2022/06/23 05:04:45;;;;;;;1.00;0.80;;;13.90;99.90;;;;;;5067009;28;20059;-70
2022/06/23 05:08:00;;;;;;;1.60;1.50;;;14.00;99.90;;;;;;5059561;28;20044;-70
2022/06/23 05:10:37;;;;;;;1.50;1.17;;;14.10;99.90;;;;;;5050645;28;20044;-71
2022/06/23 05:13:07;;;;;;;0.85;0.82;;;14.30;99.90;;;;;;5061188;28;20051;-70
2022/06/23 05:15:47;;;;;;;0.90;0.80;;;14.30;99.90;;;;;;5058137;28;20040;-71
2022/06/23 05:18:27;;;;;;;1.05;0.90;;;14.40;99.90;;;;;;5059767;28;20044;-71
2022/06/23 05:21:00;;;;;;;1.30;1.02;;;14.50;99.90;;;;;;5069763;28;20606;-72
2022/06/23 05:23:36;;;;;;;1.88;1.45;;;14.50;99.90;;;;;;5053195;28;20566;-72
2022/06/23 05:26:27;;;;;;;1.30;1.10;;;14.60;99.90;;;;;;5055090;28;20143;-72
2022/06/23 05:29:01;;;;;;;0.80;0.60;;;14.70;99.90;;;;;;5063684;28;20055;-71
2022/06/23 05:31:35;;;;;;;1.83;1.40;;;14.80;99.90;;;;;;5058011;28;20464;-71
2022/06/23 05:34:08;;;;;;;1.70;1.50;;;14.80;99.90;;;;;;5073816;28;20036;-71
2022/06/23 05:36:48;;;;;;;1.40;1.10;;;15.00;99.90;;;;;;5067137;28;20429;-70
2022/06/23 05:39:27;;;;;;;1.33;1.00;;;15.10;99.90;;;;;;5067848;28;20407;-72
2022/06/23 05:41:58;;;;;;;1.17;1.08;;;15.10;99.90;;;;;;5063846;28;20044;-72
2022/06/23 05:44:31;;;;;;;1.65;0.90;;;15.20;99.90;;;;;;5066766;28;20075;-72
2022/06/23 05:47:00;;;;;;;0.88;0.80;;;15.20;99.90;;;;;;5068600;28;20113;-70
2022/06/23 05:49:26;;;;;;;1.33;0.90;;;15.30;99.90;;;;;;5069514;28;20518;-71
2022/06/23 05:52:06;;;;;;;0.90;0.80;;;15.40;99.90;;;;;;5068217;28;20083;-71
2022/06/23 05:54:42;;;;;;;1.00;0.70;;;15.60;99.90;;;;;;5052520;28;20381;-71
2022/06/23 05:57:13;;;;;;;1.10;1.00;;;15.60;99.90;;;;;;5053155;28;20047;-71
2022/06/23 06:00:17;;;;;;;1.00;0.90;;;15.80;99.90;;;;;;5064391;28;20043;-71
2022/06/23 06:02:49;;;;;;;1.20;1.02;;;15.80;99.90;;;;;;5048898;28;20454;-71
2022/06/23 06:05:25;;;;;;;1.52;1.00;;;15.90;99.90;;;;;;5056745;28;20051;-71
2022/06/23 06:07:51;;;;;;;2.05;1.30;;;16.00;99.90;;;;;;5069768;28;20040;-70
2022/06/23 06:10:22;;;;;;;1.63;1.10;;;16.10;99.90;;;;;;5058674;28;20044;-71
2022/06/23 06:12:49;;;;;;;1.05;0.80;;;16.30;99.90;;;;;;5066733;28;20408;-72
2022/06/23 06:15:25;;;;;;;2.25;0.90;;;16.40;99.90;;;;;;5069738;28;20439;-71
2022/06/23 06:18:02;;;;;;;0.80;0.80;;;16.70;99.90;;;;;;5055802;28;20048;-71
2022/06/23 06:20:27;;;;;;;1.30;0.90;;;16.90;99.90;;;;;;5068181;28;20522;-71
2022/06/23 06:23:06;;;;;;;1.92;1.20;;;17.00;99.90;;;;;;5055599;28;20143;-72
2022/06/23 06:25:35;;;;;;;1.20;1.02;;;17.20;99.90;;;;;;5069564;28;20040;-71
2022/06/23 06:28:33;;;;;;;2.20;1.45;;;17.30;99.90;;;;;;5069657;28;20530;-72
2022/06/23 06:31:24;;;;;;;1.15;0.90;;;17.60;99.90;;;;;;5035050;28;20128;-71
2022/06/23 06:34:06;;;;;;;0.98;0.80;;;17.80;99.90;;;;;;5069570;28;20071;-72
2022/06/23 06:36:42;;;;;;;1.48;1.10;;;18.00;99.90;;;;;;5048816;28;20045;-71
2022/06/23 06:39:14;;;;;;;2.50;1.60;;;18.00;99.90;;;;;;5063792;28;20045;-72
2022/06/23 06:41:43;;;;;;;2.00;1.30;;;18.00;99.90;;;;;;5052058;28;20048;-72
2022/06/23 06:44:11;;;;;;;1.40;1.20;;;18.10;99.90;;;;;;5037746;28;20115;-72
2022/06/23 06:46:40;;;;;;;1.60;1.10;;;18.20;99.90;;;;;;5069105;28;20044;-72
2022/06/23 06:49:12;;;;;;;1.92;1.20;;;18.20;99.90;;;;;;5052559;28;20537;-72
2022/06/23 06:51:39;;;;;;;2.22;1.75;;;18.30;99.90;;;;;;5067468;28;20137;-71
2022/06/23 06:54:24;;;;;;;2.33;1.90;;;18.40;99.90;;;;;;5056963;28;20044;-72
2022/06/23 06:56:56;;;;;;;2.05;1.60;;;18.40;99.90;;;;;;5068664;28;20072;-72
2022/06/23 06:59:24;;;;;;;1.90;1.35;;;18.50;99.90;;;;;;5069319;28;20113;-72
2022/06/23 07:02:19;;;;;;;1.55;1.20;;;18.70;99.90;;;;;;5068925;28;20044;-72
2022/06/23 07:04:51;;;;;;;1.50;1.20;;;18.80;99.90;;;;;;5052208;28;20083;-72
2022/06/23 07:07:23;;;;;;;1.77;1.30;;;18.90;99.90;;;;;;5081442;28;20072;-72
2022/06/23 07:09:57;;;;;;;1.25;0.82;;;19.10;99.90;;;;;;5076913;28;20492;-71
2022/06/23 07:12:52;;;;;;;1.83;1.50;;;19.30;99.90;;;;;;5085610;28;20499;-72
2022/06/23 07:15:34;;;;;;;1.88;1.48;;;19.40;99.90;;;;;;5068951;28;20051;-71
2022/06/23 07:18:04;;;;;;;1.20;1.10;;;19.50;99.90;;;;;;5060441;28;20053;-71
2022/06/23 07:20:57;;;;;;;1.30;1.00;;;19.70;99.90;;;;;;5063684;28;20499;-72
2022/06/23 07:23:38;;;;;;;1.00;0.90;;;19.80;99.90;;;;;;5068795;28;20123;-71
2022/06/23 07:26:40;;;;;;;2.00;1.60;;;19.90;99.90;;;;;;5061401;28;20076;-71
2022/06/23 07:29:17;;;;;;;1.20;1.10;;;20.00;99.90;;;;;;5058970;28;20519;-72
2022/06/23 07:32:11;;;;;;;1.20;0.90;;;20.20;99.90;;;;;;5068803;28;20502;-72
2022/06/23 07:34:44;;;;;;;2.05;1.20;;;20.40;99.90;;;;;;5051943;28;20079;-71
2022/06/23 07:37:44;;;;;;;1.20;1.10;;;20.70;99.90;;;;;;5073055;28;20051;-71
2022/06/23 07:40:11;;;;;;;1.77;1.60;;;20.80;99.90;;;;;;5050778;28;20070;-72
2022/06/23 07:42:40;;;;;;;2.15;1.23;;;20.90;99.90;;;;;;5057175;28;20053;-71
2022/06/23 07:45:14;;;;;;;1.30;1.20;;;21.00;99.90;;;;;;5065946;28;20049;-72
2022/06/23 07:47:40;;;;;;;1.40;1.13;;;21.20;99.90;;;;;;5070123;28;20051;-71
2022/06/23 07:50:06;;;;;;;1.55;1.00;;;21.30;99.90;;;;;;5038765;28;20049;-71
2022/06/23 07:52:32;;;;;;;1.55;0.90;;;21.40;99.90;;;;;;5061509;28;20103;-71
2022/06/23 07:55:00;;;;;;;0.80;0.80;;;21.60;99.90;;;;;;5057322;28;20488;-71
2022/06/23 07:57:30;;;;;;;2.33;1.33;;;21.80;99.90;;;;;;5059431;28;20083;-71
2022/06/23 08:00:00;;;;;;;1.13;0.90;;;22.00;99.90;;;;;;5089377;28;20226;-71
2022/06/23 08:02:41;;;;;;;2.22;1.65;;;22.20;99.90;;;;;;5058531;28;20044;-71
2022/06/23 08:05:15;;;;;;;1.90;1.27;;;22.20;99.90;;;;;;5057734;28;20041;-71
2022/06/23 08:07:42;;;;;;;1.27;1.17;;;22.30;99.90;;;;;;5043078;28;20063;-71
2022/06/23 08:10:21;;;;;;;1.58;1.48;;;22.50;99.90;;;;;;5075063;28;20041;-71
2022/06/23 08:13:00;;;;;;;2.40;1.20;;;22.60;99.90;;;;;;5059589;28;20040;-71
2022/06/23 08:18:40;;;;;;;2.05;1.25;;;23.10;99.90;;;;;;5060389;28;20052;-71
2022/06/23 08:21:24;;;;;;;1.50;1.00;;;23.30;99.90;;;;;;5058044;28;20416;-71
2022/06/23 08:23:53;;;;;;;1.38;1.10;;;23.40;99.90;;;;;;5071622;28;20139;-71
2022/06/23 08:26:21;;;;;;;1.17;1.00;;;23.60;99.90;;;;;;5072157;28;20033;-72
2022/06/23 08:28:50;;;;;;;1.45;1.00;;;23.90;99.90;;;;;;5088526;28;20041;-71
2022/06/23 08:31:17;;;;;;;1.92;1.10;;;24.20;99.90;;;;;;5066068;28;20048;-71
2022/06/23 08:33:43;;;;;;;0.95;0.85;;;24.40;99.90;;;;;;5063792;28;20403;-71
2022/06/23 08:36:18;;;;;;;1.02;0.90;;;24.70;99.90;;;;;;5067887;28;20049;-71
2022/06/23 08:38:53;;;;;;;1.02;0.93;;;25.00;99.90;;;;;;5070533;28;20083;-72
2022/06/23 08:41:41;;;;;;;0.82;0.70;;;25.20;98.50;;;;;;5077358;28;20116;-71
2022/06/23 08:44:28;;;;;;;1.73;1.00;;;25.20;98.70;;;;;;5088823;28;20059;-71
2022/06/23 08:47:04;;;;;;;1.35;0.90;;;25.40;99.70;;;;;;5057911;28;20040;-71
2022/06/23 08:49:39;;;;;;;1.00;0.75;;;25.60;99.30;;;;;;5071687;28;20195;-71
2022/06/23 08:52:21;;;;;;;1.27;0.90;;;25.70;98.30;;;;;;5052614;28;20384;-72
2022/06/23 08:55:09;;;;;;;1.15;0.80;;;25.70;97.60;;;;;;5065175;28;20090;-71
2022/06/23 08:57:50;;;;;;;0.77;0.70;;;25.80;97.20;;;;;;5060098;28;20044;-71
2022/06/23 09:00:21;;;;;;;0.70;0.70;;;26.10;96.60;;;;;;5070778;28;20040;-72
2022/06/23 09:02:59;;;;;;;0.82;0.70;;;26.20;95.80;;;;;;5054867;28;20055;-72
2022/06/23 09:05:38;;;;;;;1.13;0.90;;;26.20;95.90;;;;;;5068477;28;20037;-72
2022/06/23 09:08:17;;;;;;;1.92;1.20;;;26.20;95.90;;;;;;5051549;28;20098;-72
2022/06/23 09:10:51;;;;;;;1.80;0.90;;;26.20;96.00;;;;;;5069980;28;20428;-72
2022/06/23 09:13:23;;;;;;;0.90;0.80;;;26.30;96.60;;;;;;5069503;28;20085;-72
2022/06/23 09:15:51;;;;;;;1.20;0.88;;;26.40;95.70;;;;;;5071330;28;20036;-72
2022/06/23 09:18:47;;;;;;;1.17;0.85;;;26.60;95.10;;;;;;5054748;28;20118;-72
2022/06/23 09:21:38;;;;;;;0.80;0.70;;;26.60;95.50;;;;;;5058231;28;20109;-72
2022/06/23 09:24:37;;;;;;;0.63;0.63;;;26.90;95.40;;;;;;5071106;28;20052;-71
2022/06/23 09:27:41;;;;;;;0.70;0.60;;;27.00;93.90;;;;;;5057852;28;20064;-72
2022/06/23 09:30:15;;;;;;;1.02;0.80;;;27.00;94.20;;;;;;5028218;28;20084;-72
2022/06/23 09:33:22;;;;;;;1.10;0.80;;;27.10;94.20;;;;;;5048332;28;20499;-72
2022/06/23 09:35:59;;;;;;;0.63;0.63;;;27.30;92.90;;;;;;5051083;28;20044;-72
2022/06/23 09:38:50;;;;;;;0.63;0.60;;;27.50;92.90;;;;;;5064107;28;20069;-72
2022/06/23 09:41:38;;;;;;;1.63;0.70;;;27.60;93.60;;;;;;5076321;28;20044;-72
2022/06/23 09:44:09;;;;;;;0.90;0.60;;;27.80;92.60;;;;;;5059676;28;20036;-72
2022/06/23 09:46:41;;;;;;;0.70;0.70;;;27.80;93.20;;;;;;5068700;28;20074;-72
2022/06/23 09:49:16;;;;;;;1.10;0.70;;;27.80;92.80;;;;;;5059428;28;20048;-72
2022/06/23 09:51:57;;;;;;;0.45;0.45;;;27.90;92.90;;;;;;5070562;28;20131;-72
2022/06/23 09:54:34;;;;;;;1.05;0.68;;;28.10;93.20;;;;;;5053896;28;20036;-72
2022/06/23 09:57:17;;;;;;;1.27;0.70;;;28.30;92.90;;;;;;5070534;28;20040;-72
2022/06/23 09:59:59;;;;;;;1.13;0.80;;;28.50;92.60;;;;;;5058292;28;20041;-72
2022/06/23 10:02:34;;;;;;;0.77;0.60;;;28.50;91.20;;;;;;5039709;28;20134;-72
2022/06/23 10:05:09;;;;;;;0.67;0.53;;;28.50;90.60;;;;;;5070213;28;20040;-72
2022/06/23 10:07:47;;;;;;;0.98;0.60;;;28.70;90.70;;;;;;5075136;28;20548;-73
2022/06/23 10:10:50;;;;;;;1.38;0.75;;;28.80;92.20;;;;;;5064140;28;20052;-72
2022/06/23 10:13:37;;;;;;;1.85;0.90;;;28.60;89.10;;;;;;5061894;28;20072;-73
2022/06/23 10:16:41;;;;;;;0.90;0.82;;;28.50;90.30;;;;;;5066812;28;20044;-72
2022/06/23 10:19:23;;;;;;;1.58;0.70;;;28.70;87.60;;;;;;5080771;28;20057;-72
2022/06/23 10:22:17;;;;;;;0.50;0.50;;;28.90;87.70;;;;;;5063361;28;20118;-72
2022/06/23 10:24:56;;;;;;;1.63;0.93;;;29.10;88.50;;;;;;5057768;28;20063;-72
2022/06/23 10:27:46;;;;;;;0.43;0.43;;;29.20;88.40;;;;;;5069670;28;20081;-72
2022/06/23 10:30:34;;;;;;;0.75;0.60;;;29.30;86.40;;;;;;5070030;28;20040;-72
2022/06/23 10:33:08;;;;;;;1.88;0.70;;;29.40;83.00;;;;;;5066632;28;20048;-71
2022/06/23 10:35:54;;;;;;;0.82;0.70;;;29.40;80.30;;;;;;5062951;28;20482;-72
2022/06/23 10:38:35;;;;;;;0.65;0.60;;;29.40;83.40;;;;;;5070281;28;20110;-72
2022/06/23 10:41:07;;;;;;;1.90;1.00;;;29.60;83.50;;;;;;5061480;28;20048;-72
2022/06/23 10:44:06;;;;;;;0.60;0.60;;;29.50;80.30;;;;;;5069530;28;20144;-72
2022/06/23 10:47:04;;;;;;;0.90;0.70;;;29.60;81.50;;;;;;5069299;28;20567;-72
2022/06/23 10:49:33;;;;;;;1.05;0.60;;;29.60;80.80;;;;;;5069780;28;20105;-72
2022/06/23 10:52:26;;;;;;;0.55;0.50;;;29.70;78.40;;;;;;5069239;28;20511;-72
2022/06/23 10:55:06;;;;;;;0.73;0.40;;;29.70;76.00;;;;;;5069538;28;20040;-72
2022/06/23 10:57:59;;;;;;;0.57;0.55;;;29.70;77.90;;;;;;5057279;28;20492;-72
2022/06/23 11:00:32;;;;;;;0.43;0.43;;;29.80;76.40;;;;;;5052951;28;20468;-71
2022/06/23 11:03:32;;;;;;;0.80;0.70;;;29.90;77.20;;;;;;5067542;28;20051;-72
2022/06/23 11:06:20;;;;;;;0.95;0.60;;;30.10;76.50;;;;;;5049689;28;20087;-72
2022/06/23 11:08:56;;;;;;;0.98;0.70;;;30.10;78.20;;;;;;5065937;28;20067;-71
2022/06/23 11:11:55;;;;;;;1.08;0.63;;;29.90;76.30;;;;;;5059504;28;20131;-71
2022/06/23 11:14:27;;;;;;;0.57;0.50;;;30.10;79.10;;;;;;5055580;28;20045;-72
2022/06/23 11:17:11;;;;;;;1.02;0.55;;;30.20;77.90;;;;;;5069056;28;20098;-71
2022/06/23 11:20:02;;;;;;;0.95;0.70;;;30.50;78.50;;;;;;5049166;28;20075;-72
2022/06/23 11:22:38;;;;;;;0.85;0.70;;;30.50;78.70;;;;;;5065481;28;20131;-71
2022/06/23 11:25:40;;;;;;;1.58;0.60;;;30.60;77.40;;;;;;5069021;28;20093;-72
2022/06/23 11:28:34;;;;;;;1.73;0.80;;;30.80;76.60;;;;;;5040097;28;20103;-71
2022/06/23 11:31:28;;;;;;;1.02;0.60;;;30.70;77.80;;;;;;5037502;28;20091;-71
2022/06/23 11:34:22;;;;;;;0.70;0.50;;;30.90;76.80;;;;;;5048917;28;20437;-72
2022/06/23 11:37:12;;;;;;;1.88;0.60;;;31.00;78.10;;;;;;5048818;28;20093;-71
2022/06/23 11:39:39;;;;;;;0.75;0.60;;;31.10;76.90;;;;;;5067503;28;20131;-71
2022/06/23 11:42:52;;;;;;;0.60;0.60;;;31.00;74.10;;;;;;5068659;28;20044;-72
2022/06/23 11:45:37;;;;;;;0.82;0.60;;;31.10;75.80;;;;;;5041961;28;20580;-72
2022/06/23 11:48:35;;;;;;;0.80;0.55;;;31.00;74.90;;;;;;5068628;28;20048;-72
2022/06/23 11:51:17;;;;;;;0.60;0.60;;;31.20;76.50;;;;;;5014172;28;20132;-72
2022/06/23 11:54:06;;;;;;;0.57;0.57;;;31.30;75.70;;;;;;5067342;28;20518;-72
2022/06/23 11:56:56;;;;;;;1.55;0.80;;;31.50;76.10;;;;;;5051323;28;20044;-72
2022/06/23 11:59:39;;;;;;;1.45;0.80;;;31.60;76.20;;;;;;5058011;28;20041;-72
2022/06/23 12:02:06;;;;;;;1.30;0.70;;;31.60;77.00;;;;;;5068441;28;20036;-71
2022/06/23 12:04:58;;;;;;;0.75;0.70;;;31.50;74.80;;;;;;5085498;28;20084;-72
2022/06/23 12:07:48;;;;;;;1.42;0.80;;;31.60;75.20;;;;;;5068707;28;20382;-72
2022/06/23 12:10:28;;;;;;;0.68;0.47;;;31.50;72.40;;;;;;5068093;28;20048;-72
2022/06/23 12:12:57;;;;;;;1.58;0.73;;;31.70;74.90;;;;;;5057030;28;20060;-71
2022/06/23 12:15:30;;;;;;;1.35;0.63;;;31.70;72.90;;;;;;5068661;28;20048;-72
2022/06/23 12:18:25;;;;;;;1.02;0.60;;;31.70;71.60;;;;;;5068414;28;20040;-72
2022/06/23 12:20:59;;;;;;;1.25;0.70;;;31.70;70.90;;;;;;5066334;28;20123;-72
2022/06/23 12:23:46;;;;;;;1.10;0.70;;;31.90;72.60;;;;;;5068373;28;20052;-72
2022/06/23 12:26:19;;;;;;;0.40;0.40;;;32.20;72.20;;;;;;5054559;28;20048;-71
2022/06/23 12:28:58;;;;;;;0.60;0.50;;;32.30;70.60;;;;;;5085186;28;20115;-72
2022/06/23 12:31:41;;;;;;;0.63;0.50;;;32.60;71.30;;;;;;5085135;28;20135;-72
2022/06/23 12:34:26;;;;;;;0.50;0.50;;;32.70;69.80;;;;;;5064840;28;20518;-72
2022/06/23 12:37:02;;;;;;;0.40;0.40;;;32.80;68.60;;;;;;5061922;28;20345;-72
2022/06/23 12:40:00;;;;;;;0.70;0.40;;;32.90;69.40;;;;;;5069415;28;20098;-72
2022/06/23 12:42:34;;;;;;;0.45;0.45;;;33.10;69.60;;;;;;5061372;28;20503;-72
2022/06/23 12:45:08;;;;;;;0.52;0.40;;;33.10;67.30;;;;;;5071831;28;20048;-72
2022/06/23 12:47:52;;;;;;;0.60;0.40;;;33.00;67.10;;;;;;5071751;28;20081;-72
2022/06/23 12:50:24;;;;;;;0.50;0.50;;;32.90;66.20;;;;;;5070179;28;20041;-72
2022/06/23 12:53:03;;;;;;;0.35;0.35;;;32.90;66.80;;;;;;5071667;28;20182;-72
2022/06/23 12:55:50;;;;;;;0.82;0.60;;;32.90;66.70;;;;;;5071668;28;20048;-72
2022/06/23 12:58:25;;;;;;;0.40;0.40;;;32.80;65.90;;;;;;5071637;28;20135;-72
2022/06/23 13:01:15;;;;;;;0.35;0.30;;;33.00;65.50;;;;;;5059179;28;20056;-72
2022/06/23 13:04:05;;;;;;;0.47;0.47;;;33.20;66.10;;;;;;5057065;28;20045;-72
2022/06/23 13:07:17;;;;;;;0.52;0.52;;;33.30;67.00;;;;;;5071419;28;20059;-72
2022/06/23 13:09:57;;;;;;;0.98;0.60;;;32.90;64.60;;;;;;5068308;28;20500;-74
2022/06/23 13:12:31;;;;;;;0.47;0.47;;;33.00;65.50;;;;;;5071213;28;20040;-72
2022/06/23 13:15:01;;;;;;;0.90;0.43;;;33.00;65.50;;;;;;5071359;28;20112;-72
2022/06/23 13:17:37;;;;;;;0.35;0.35;;;32.90;65.50;;;;;;5067054;28;20037;-72
2022/06/23 13:20:19;;;;;;;0.45;0.45;;;32.90;63.80;;;;;;5051252;28;20053;-72
2022/06/23 13:22:58;;;;;;;0.50;0.50;;;32.80;63.80;;;;;;5068270;28;20517;-72
2022/06/23 13:25:32;;;;;;;0.93;0.70;;;32.60;63.80;;;;;;5045800;28;20113;-72
2022/06/23 13:27:58;;;;;;;0.52;0.45;;;32.80;64.60;;;;;;5066700;28;20111;-72
2022/06/23 13:30:27;;;;;;;0.70;0.50;;;32.80;63.40;;;;;;5069438;28;20135;-77
2022/06/23 13:33:10;;;;;;;0.55;0.50;;;33.00;64.50;;;;;;5054060;28;20082;-76
2022/06/23 13:35:44;;;;;;;0.75;0.47;;;33.20;64.70;;;;;;5070017;28;20466;-76
2022/06/23 13:38:27;;;;;;;1.73;0.80;;;33.20;63.60;;;;;;5054638;28;20037;-76
2022/06/23 13:41:08;;;;;;;0.85;0.50;;;33.00;63.80;;;;;;5062708;28;20071;-76
2022/06/23 13:43:41;;;;;;;0.50;0.50;;;33.10;63.10;;;;;;5056135;28;20042;-77
2022/06/23 13:46:33;;;;;;;0.70;0.50;;;33.10;65.10;;;;;;5066811;28;20036;-76
2022/06/23 13:49:10;;;;;;;0.40;0.40;;;33.20;63.30;;;;;;5061469;28;20051;-76
2022/06/23 13:51:57;;;;;;;0.75;0.50;;;33.20;63.50;;;;;;5056208;28;20048;-76
2022/06/23 13:54:38;;;;;;;0.40;0.40;;;33.40;62.50;;;;;;5078817;28;20072;-76
2022/06/23 13:57:26;;;;;;;0.40;0.40;;;33.50;62.20;;;;;;5054102;28;20045;-77